Time;durP1;ratioP1;P1;durP2;ratioP2;P2;SDS_P1;SDS_P2;PMS_P1;PMS_P2;Temp;Humidity;BMP_temperature;BMP_pressure;BME280_temperature;BME280_humidity;BME280_pressure;Samples;Min_cycle;Max_cycle;Signal;HPM_P1;HPM_P2
2022/12/04 00:01:48;;;;;;;13.93;7.53;;;;;;;;;;5055663;28;20049;-76
2022/12/04 00:04:34;;;;;;;18.67;10.63;;;;;;;;;;5057152;28;20387;-76
2022/12/04 00:07:19;;;;;;;18.75;10.13;;;;;;;;;;5055142;28;20044;-77
2022/12/04 00:10:05;;;;;;;19.13;10.60;;;;;;;;;;5055373;28;20045;-75
2022/12/04 00:12:52;;;;;;;25.75;11.48;;;;;;;;;;5061821;28;20045;-75
2022/12/04 00:15:41;;;;;;;18.65;10.32;;;;;;;;;;5055666;28;20041;-75
2022/12/04 00:18:30;;;;;;;27.20;13.80;;;;;;;;;;5061608;28;20394;-78
2022/12/04 00:21:20;;;;;;;19.67;9.38;;;;;;;;;;5077595;28;20045;-75
2022/12/04 00:24:05;;;;;;;27.33;15.35;;;;;;;;;;5060365;28;20049;-76
2022/12/04 00:26:51;;;;;;;19.50;10.35;;;;;;;;;;5071356;28;20041;-75
2022/12/04 00:29:36;;;;;;;40.38;19.90;;;;;;;;;;5061954;28;20493;-76
2022/12/04 00:32:22;;;;;;;14.52;8.32;;;;;;;;;;5054649;28;20049;-76
2022/12/04 00:35:08;;;;;;;11.32;7.35;;;;;;;;;;5054378;28;20045;-75
2022/12/04 00:37:54;;;;;;;12.73;8.05;;;;;;;;;;5053795;28;20053;-73
2022/12/04 00:40:48;;;;;;;8.07;4.63;;;;;;;;;;5053305;28;20041;-76
2022/12/04 00:43:33;;;;;;;12.07;7.05;;;;;;;;;;5052182;28;20053;-74
2022/12/04 00:46:19;;;;;;;14.27;7.90;;;;;;;;;;5052274;28;20060;-75
2022/12/04 00:49:04;;;;;;;13.40;7.25;;;;;;;;;;5052284;28;20048;-74
2022/12/04 00:51:49;;;;;;;11.48;6.57;;;;;;;;;;5051915;28;20045;-75
2022/12/04 00:54:38;;;;;;;12.13;6.63;;;;;;;;;;5062959;28;20482;-76
2022/12/04 00:57:24;;;;;;;6.90;4.13;;;;;;;;;;5059048;28;20482;-75
2022/12/04 01:00:10;;;;;;;13.57;7.53;;;;;;;;;;5054096;28;20041;-76
2022/12/04 01:03:16;;;;;;;15.02;7.13;;;;;;;;;;5054366;28;20037;-74
2022/12/04 01:06:01;;;;;;;9.05;5.10;;;;;;;;;;5060666;28;20048;-75
2022/12/04 01:08:48;;;;;;;13.65;6.97;;;;;;;;;;5060295;28;20410;-76
2022/12/04 01:11:34;;;;;;;11.10;6.78;;;;;;;;;;5060561;28;20398;-74
2022/12/04 01:14:22;;;;;;;13.90;7.22;;;;;;;;;;5053694;28;20045;-76
2022/12/04 01:17:08;;;;;;;13.43;8.15;;;;;;;;;;5053732;28;20045;-75
2022/12/04 01:19:55;;;;;;;14.18;8.15;;;;;;;;;;5053863;28;20045;-73
2022/12/04 01:22:45;;;;;;;6.45;4.40;;;;;;;;;;5039510;28;20041;-76
2022/12/04 01:25:31;;;;;;;8.55;5.47;;;;;;;;;;5053863;28;20049;-74
2022/12/04 01:28:16;;;;;;;13.00;7.25;;;;;;;;;;5060754;28;20490;-76
2022/12/04 01:31:03;;;;;;;12.77;6.53;;;;;;;;;;5056923;28;20049;-76
2022/12/04 01:33:49;;;;;;;9.55;5.97;;;;;;;;;;5058034;28;20041;-77
2022/12/04 01:36:35;;;;;;;12.65;5.88;;;;;;;;;;5063826;28;20049;-76
2022/12/04 01:39:20;;;;;;;10.27;6.72;;;;;;;;;;5053457;28;20045;-76
2022/12/04 01:42:11;;;;;;;13.18;6.60;;;;;;;;;;5053450;28;20112;-75
2022/12/04 01:45:25;;;;;;;15.05;9.43;;;;;;;;;;5055314;28;20037;-74
2022/12/04 01:48:30;;;;;;;82.60;38.92;;;;;;;;;;5065855;28;20490;-77
2022/12/04 01:51:21;;;;;;;89.93;50.50;;;;;;;;;;5055211;28;20057;-77
2022/12/04 01:54:16;;;;;;;22.38;11.32;;;;;;;;;;5064736;28;20049;-76
2022/12/04 01:57:22;;;;;;;14.13;8.90;;;;;;;;;;5060718;28;20394;-77
2022/12/04 02:00:11;;;;;;;15.52;8.05;;;;;;;;;;5057519;28;20486;-75
2022/12/04 02:02:57;;;;;;;10.73;7.30;;;;;;;;;;5057475;28;20045;-76
2022/12/04 02:05:43;;;;;;;9.75;5.88;;;;;;;;;;5063955;28;20048;-76
2022/12/04 02:08:29;;;;;;;9.23;6.03;;;;;;;;;;5057251;28;20401;-75
2022/12/04 02:11:33;;;;;;;11.93;5.97;;;;;;;;;;5057031;28;20045;-74
2022/12/04 02:14:38;;;;;;;8.63;6.15;;;;;;;;;;5063663;28;20398;-75
2022/12/04 02:17:55;;;;;;;9.35;5.65;;;;;;;;;;5056993;28;20041;-74
2022/12/04 02:21:11;;;;;;;9.55;6.82;;;;;;;;;;5057275;28;20115;-77
2022/12/04 02:24:18;;;;;;;8.35;5.57;;;;;;;;;;5056928;28;20390;-76
2022/12/04 02:27:37;;;;;;;12.93;7.22;;;;;;;;;;5057501;28;20041;-76
2022/12/04 02:30:22;;;;;;;11.18;6.90;;;;;;;;;;5056766;28;20053;-76
2022/12/04 02:33:26;;;;;;;11.90;7.10;;;;;;;;;;5056904;28;20041;-75
2022/12/04 02:36:22;;;;;;;10.20;6.68;;;;;;;;;;5057006;28;20478;-75
2022/12/04 02:39:14;;;;;;;9.80;5.85;;;;;;;;;;5075664;28;20032;-75
2022/12/04 02:42:33;;;;;;;12.88;6.80;;;;;;;;;;5070391;28;20049;-76
2022/12/04 02:45:26;;;;;;;9.30;4.95;;;;;;;;;;5056768;28;20045;-76
2022/12/04 02:48:17;;;;;;;14.07;7.88;;;;;;;;;;5056855;28;20037;-76
2022/12/04 02:51:04;;;;;;;12.80;7.05;;;;;;;;;;5056723;28;20053;-75
2022/12/04 02:53:54;;;;;;;10.35;6.38;;;;;;;;;;5063222;28;20049;-76
2022/12/04 02:56:46;;;;;;;13.50;7.55;;;;;;;;;;5063053;28;20045;-76
2022/12/04 02:59:39;;;;;;;10.38;5.65;;;;;;;;;;5056390;28;20041;-76
2022/12/04 03:02:52;;;;;;;5.45;3.60;;;;;;;;;;5057880;28;20044;-75
2022/12/04 03:05:39;;;;;;;10.77;6.28;;;;;;;;;;5065278;28;20048;-75
2022/12/04 03:08:32;;;;;;;8.35;4.65;;;;;;;;;;5059634;28;20045;-76
2022/12/04 03:11:19;;;;;;;6.90;4.47;;;;;;;;;;5064693;28;20037;-74
2022/12/04 03:14:16;;;;;;;9.23;5.18;;;;;;;;;;5058192;28;20402;-75
2022/12/04 03:17:08;;;;;;;6.55;4.25;;;;;;;;;;5063105;28;20071;-76
2022/12/04 03:19:58;;;;;;;6.95;4.65;;;;;;;;;;5055879;28;20037;-76
2022/12/04 03:22:49;;;;;;;7.75;4.47;;;;;;;;;;5064733;28;20045;-76
2022/12/04 03:25:46;;;;;;;9.05;5.45;;;;;;;;;;5056851;28;20474;-76
2022/12/04 03:28:49;;;;;;;10.40;5.78;;;;;;;;;;5055766;28;20037;-75
2022/12/04 03:31:44;;;;;;;7.97;5.20;;;;;;;;;;5063056;28;20045;-76
2022/12/04 03:34:47;;;;;;;9.25;5.55;;;;;;;;;;5062100;28;20045;-76
2022/12/04 03:38:00;;;;;;;9.32;5.57;;;;;;;;;;5062504;28;20049;-75
2022/12/04 03:41:18;;;;;;;10.25;6.40;;;;;;;;;;5056184;28;20498;-75
2022/12/04 03:44:21;;;;;;;6.18;3.97;;;;;;;;;;5055724;28;20433;-75
2022/12/04 03:47:19;;;;;;;8.82;5.35;;;;;;;;;;5055867;28;20386;-76
2022/12/04 03:50:17;;;;;;;10.52;6.18;;;;;;;;;;5062526;28;20041;-75
2022/12/04 03:53:28;;;;;;;6.10;4.18;;;;;;;;;;5056891;28;20041;-76
2022/12/04 03:56:18;;;;;;;8.35;4.88;;;;;;;;;;5055321;28;20057;-75
2022/12/04 03:59:29;;;;;;;7.28;4.32;;;;;;;;;;5055492;28;20037;-75
2022/12/04 04:02:24;;;;;;;8.18;4.93;;;;;;;;;;5055252;28;20045;-76
2022/12/04 04:05:12;;;;;;;8.32;4.35;;;;;;;;;;5062255;28;20510;-76
2022/12/04 04:11:15;;;;;;;9.48;4.55;;;;;;;;;;5062615;28;20413;-74
2022/12/04 04:26:44;;;;;;;8.43;4.72;;;;;;;;;;5061412;28;20053;-76
2022/12/04 04:29:29;;;;;;;7.85;4.47;;;;;;;;;;5055517;28;20041;-76
2022/12/04 04:32:46;;;;;;;8.50;5.00;;;;;;;;;;5055612;28;20044;-76
2022/12/04 04:36:03;;;;;;;9.65;5.25;;;;;;;;;;5062029;28;20049;-76
2022/12/04 04:39:26;;;;;;;6.00;3.92;;;;;;;;;;5056680;28;20048;-75
2022/12/04 04:42:16;;;;;;;7.72;4.80;;;;;;;;;;5056766;28;20045;-75
2022/12/04 04:45:12;;;;;;;13.65;5.40;;;;;;;;;;5054506;28;20044;-75
2022/12/04 04:48:10;;;;;;;7.80;4.82;;;;;;;;;;5054797;28;20041;-76
2022/12/04 04:50:56;;;;;;;6.07;4.60;;;;;;;;;;5054334;28;20044;-76
2022/12/04 04:53:46;;;;;;;8.23;4.97;;;;;;;;;;5061552;28;20486;-75
2022/12/04 04:56:31;;;;;;;7.45;4.80;;;;;;;;;;5064251;28;20053;-77
2022/12/04 04:59:17;;;;;;;5.70;3.88;;;;;;;;;;5072507;28;20052;-75
2022/12/04 05:02:02;;;;;;;5.18;3.55;;;;;;;;;;5053924;28;20041;-76
2022/12/04 05:04:47;;;;;;;4.55;3.28;;;;;;;;;;5053967;28;20053;-76
2022/12/04 05:07:34;;;;;;;7.85;4.57;;;;;;;;;;5045912;28;20037;-76
2022/12/04 05:10:19;;;;;;;8.52;4.95;;;;;;;;;;5053950;28;20053;-75
2022/12/04 05:13:04;;;;;;;6.55;4.35;;;;;;;;;;5053736;28;20394;-75
2022/12/04 05:16:03;;;;;;;6.25;4.22;;;;;;;;;;5053357;28;20048;-75
2022/12/04 05:21:52;;;;;;;7.43;4.35;;;;;;;;;;5060412;28;20394;-77
2022/12/04 05:24:38;;;;;;;4.65;3.45;;;;;;;;;;5060980;28;20052;-75
2022/12/04 05:27:25;;;;;;;7.43;4.40;;;;;;;;;;5053673;28;20041;-75
2022/12/04 05:30:11;;;;;;;5.40;3.50;;;;;;;;;;5060395;28;20040;-74
2022/12/04 05:32:55;;;;;;;4.28;3.35;;;;;;;;;;5060066;28;20041;-76
2022/12/04 05:35:41;;;;;;;5.72;3.78;;;;;;;;;;5044633;28;20490;-75
2022/12/04 05:38:27;;;;;;;9.80;5.05;;;;;;;;;;5060279;28;20397;-75
2022/12/04 05:41:12;;;;;;;7.90;4.82;;;;;;;;;;5054128;28;20041;-75
2022/12/04 05:43:58;;;;;;;5.70;4.38;;;;;;;;;;5055779;28;20041;-76
2022/12/04 05:46:43;;;;;;;6.65;4.68;;;;;;;;;;5071940;28;20033;-76
2022/12/04 05:49:33;;;;;;;8.63;4.57;;;;;;;;;;5074457;28;20045;-76
2022/12/04 05:52:19;;;;;;;9.50;4.75;;;;;;;;;;5060834;28;20482;-76
2022/12/04 05:55:04;;;;;;;5.43;3.58;;;;;;;;;;5059875;28;20053;-75
2022/12/04 05:57:50;;;;;;;8.10;4.72;;;;;;;;;;5060436;28;20049;-75
2022/12/04 06:00:35;;;;;;;5.75;3.67;;;;;;;;;;5053982;28;20044;-75
2022/12/04 06:03:21;;;;;;;6.35;4.40;;;;;;;;;;5054659;28;20049;-76
2022/12/04 06:06:14;;;;;;;3.67;2.95;;;;;;;;;;5055730;28;20037;-74
2022/12/04 06:09:00;;;;;;;5.10;3.35;;;;;;;;;;5045162;28;20041;-75
2022/12/04 06:11:46;;;;;;;5.55;4.38;;;;;;;;;;5053209;28;20475;-76
2022/12/04 06:14:31;;;;;;;8.82;4.53;;;;;;;;;;5053265;28;20037;-76
2022/12/04 06:17:17;;;;;;;6.22;4.05;;;;;;;;;;5054082;28;20052;-75
2022/12/04 06:20:03;;;;;;;9.38;4.55;;;;;;;;;;5056149;28;20045;-75
2022/12/04 06:22:48;;;;;;;6.68;3.90;;;;;;;;;;5054353;28;20413;-74
2022/12/04 06:25:33;;;;;;;9.45;5.93;;;;;;;;;;5060769;28;20036;-77
2022/12/04 06:28:19;;;;;;;5.88;3.67;;;;;;;;;;5053212;28;20045;-76
2022/12/04 06:31:11;;;;;;;7.45;4.35;;;;;;;;;;5059947;28;20398;-76
2022/12/04 06:33:57;;;;;;;6.07;3.88;;;;;;;;;;5053337;28;20045;-76
2022/12/04 06:36:43;;;;;;;6.25;4.20;;;;;;;;;;5053454;28;20398;-77
2022/12/04 06:39:28;;;;;;;6.50;4.70;;;;;;;;;;5063476;28;20482;-77
2022/12/04 06:42:14;;;;;;;5.38;3.72;;;;;;;;;;5057580;28;20390;-76
2022/12/04 06:44:59;;;;;;;6.88;4.25;;;;;;;;;;5057190;28;20045;-77
2022/12/04 06:47:45;;;;;;;6.60;4.53;;;;;;;;;;5057190;28;20490;-76
2022/12/04 06:50:31;;;;;;;6.72;4.78;;;;;;;;;;5056421;28;20045;-77
2022/12/04 06:53:16;;;;;;;6.13;4.40;;;;;;;;;;5063504;28;20048;-76
2022/12/04 06:56:05;;;;;;;7.47;5.00;;;;;;;;;;5062919;28;20049;-76
2022/12/04 06:58:52;;;;;;;6.65;4.32;;;;;;;;;;5056357;28;20052;-77
2022/12/04 07:01:37;;;;;;;4.85;3.30;;;;;;;;;;5056265;28;20049;-77
2022/12/04 07:04:23;;;;;;;6.88;3.30;;;;;;;;;;5062820;28;20044;-74
2022/12/04 07:07:08;;;;;;;5.05;3.38;;;;;;;;;;5055896;28;20045;-75
2022/12/04 07:09:54;;;;;;;5.75;3.13;;;;;;;;;;5056196;28;20045;-76
2022/12/04 07:12:39;;;;;;;7.60;4.65;;;;;;;;;;5069006;28;20037;-77
2022/12/04 07:15:26;;;;;;;5.60;3.85;;;;;;;;;;5044679;28;20049;-76
2022/12/04 07:18:11;;;;;;;6.00;3.90;;;;;;;;;;5056732;28;20044;-76
2022/12/04 07:20:58;;;;;;;6.15;4.15;;;;;;;;;;5056595;28;20049;-77
2022/12/04 07:23:46;;;;;;;7.70;5.07;;;;;;;;;;5055990;28;20049;-76
2022/12/04 07:26:32;;;;;;;5.45;3.92;;;;;;;;;;5063411;28;20501;-76
2022/12/04 07:29:17;;;;;;;6.88;4.15;;;;;;;;;;5056547;28;20045;-76
2022/12/04 07:32:03;;;;;;;5.78;3.75;;;;;;;;;;5062938;28;20130;-77
2022/12/04 07:34:48;;;;;;;4.68;3.40;;;;;;;;;;5056034;28;20490;-75
2022/12/04 07:37:35;;;;;;;5.65;4.05;;;;;;;;;;5055748;28;20045;-75
2022/12/04 07:40:22;;;;;;;4.43;3.20;;;;;;;;;;5056227;28;20363;-77
2022/12/04 07:43:07;;;;;;;7.60;4.93;;;;;;;;;;5060491;28;20483;-77
2022/12/04 07:45:52;;;;;;;5.55;3.72;;;;;;;;;;5055625;28;20053;-75
2022/12/04 07:48:38;;;;;;;10.15;4.18;;;;;;;;;;5062883;28;20040;-76
2022/12/04 07:51:26;;;;;;;6.32;3.90;;;;;;;;;;5061904;28;20049;-75
2022/12/04 07:54:12;;;;;;;8.02;4.40;;;;;;;;;;5062067;28;20398;-73
2022/12/04 07:56:58;;;;;;;8.57;5.05;;;;;;;;;;5055324;28;20486;-75
2022/12/04 07:59:43;;;;;;;5.07;3.30;;;;;;;;;;5056503;28;20049;-76
2022/12/04 08:02:29;;;;;;;7.75;5.10;;;;;;;;;;5054550;28;20045;-77
2022/12/04 08:05:15;;;;;;;9.20;6.38;;;;;;;;;;5062591;28;20478;-77
2022/12/04 08:08:00;;;;;;;14.27;6.70;;;;;;;;;;5054823;28;20049;-76
2022/12/04 08:10:46;;;;;;;14.45;8.55;;;;;;;;;;5054804;28;20037;-76
2022/12/04 08:13:31;;;;;;;8.57;5.75;;;;;;;;;;5061687;28;20071;-78
2022/12/04 08:16:17;;;;;;;8.20;5.18;;;;;;;;;;5061321;28;20049;-75
2022/12/04 08:19:03;;;;;;;6.45;4.78;;;;;;;;;;5061511;28;20045;-77
2022/12/04 08:21:48;;;;;;;7.22;4.65;;;;;;;;;;5060195;28;20049;-74
2022/12/04 08:24:34;;;;;;;5.28;3.85;;;;;;;;;;5053216;28;20053;-76
2022/12/04 08:27:19;;;;;;;8.63;5.15;;;;;;;;;;5061375;28;20040;-77
2022/12/04 08:30:05;;;;;;;8.77;5.32;;;;;;;;;;5054700;28;20045;-77
2022/12/04 08:32:49;;;;;;;7.53;5.00;;;;;;;;;;5061356;28;20048;-76
2022/12/04 08:35:35;;;;;;;20.40;11.82;;;;;;;;;;5054208;28;20049;-75
2022/12/04 08:38:20;;;;;;;6.93;3.75;;;;;;;;;;5060283;28;20489;-74
2022/12/04 08:41:09;;;;;;;6.95;4.45;;;;;;;;;;5054429;28;20041;-78
2022/12/04 08:43:56;;;;;;;7.03;4.45;;;;;;;;;;5054350;28;20394;-77
2022/12/04 08:46:42;;;;;;;11.18;5.80;;;;;;;;;;5054800;28;20053;-78
2022/12/04 08:49:29;;;;;;;8.00;4.95;;;;;;;;;;5054351;28;20136;-79
2022/12/04 08:52:14;;;;;;;6.30;4.25;;;;;;;;;;5061072;28;20033;-78
2022/12/04 08:54:59;;;;;;;6.07;4.43;;;;;;;;;;5053852;28;20041;-78
2022/12/04 08:57:44;;;;;;;7.03;4.55;;;;;;;;;;5054076;28;20044;-78
2022/12/04 09:00:30;;;;;;;8.88;5.63;;;;;;;;;;5055141;28;20041;-79
2022/12/04 09:03:16;;;;;;;7.50;4.97;;;;;;;;;;5064582;28;20052;-80
2022/12/04 09:06:04;;;;;;;9.77;6.97;;;;;;;;;;5053984;28;20041;-78
2022/12/04 09:08:54;;;;;;;5.53;3.97;;;;;;;;;;5058235;28;20394;-78
2022/12/04 09:11:40;;;;;;;7.30;4.10;;;;;;;;;;5064391;28;20049;-78
2022/12/04 09:14:25;;;;;;;8.68;3.72;;;;;;;;;;5038833;28;20402;-80
2022/12/04 09:17:11;;;;;;;6.97;4.45;;;;;;;;;;5061010;28;20290;-76
2022/12/04 09:20:06;;;;;;;8.57;5.40;;;;;;;;;;5056127;28;20041;-81
2022/12/04 09:22:52;;;;;;;7.97;4.60;;;;;;;;;;5057100;28;20037;-78
2022/12/04 09:25:38;;;;;;;8.65;6.30;;;;;;;;;;5077939;28;20041;-79
2022/12/04 09:28:23;;;;;;;9.15;5.97;;;;;;;;;;5060371;28;20037;-78
2022/12/04 09:31:10;;;;;;;8.75;5.60;;;;;;;;;;5059331;28;20510;-79
2022/12/04 09:33:58;;;;;;;8.02;5.20;;;;;;;;;;5058010;28;20494;-78
2022/12/04 09:36:44;;;;;;;14.93;6.93;;;;;;;;;;5054512;28;20048;-79
2022/12/04 09:39:29;;;;;;;10.90;5.90;;;;;;;;;;5056146;28;20041;-78
2022/12/04 09:42:31;;;;;;;13.20;7.10;;;;;;;;;;5055005;28;20036;-77
2022/12/04 09:45:22;;;;;;;13.23;6.57;;;;;;;;;;5053627;28;20045;-76
2022/12/04 09:48:09;;;;;;;8.20;5.20;;;;;;;;;;5058527;28;20049;-76
2022/12/04 09:50:55;;;;;;;8.40;4.57;;;;;;;;;;5053727;28;20045;-78
2022/12/04 09:53:53;;;;;;;10.15;5.95;;;;;;;;;;5045118;28;20041;-77
2022/12/04 09:56:39;;;;;;;5.90;4.40;;;;;;;;;;5062988;28;20041;-76
2022/12/04 09:59:28;;;;;;;6.75;4.50;;;;;;;;;;5054747;28;20044;-77
2022/12/04 10:02:34;;;;;;;9.82;5.35;;;;;;;;;;5053338;28;20474;-77
2022/12/04 10:05:25;;;;;;;10.18;6.68;;;;;;;;;;5060213;28;20037;-80
2022/12/04 10:08:23;;;;;;;8.50;4.97;;;;;;;;;;5060920;28;20048;-79
2022/12/04 10:11:45;;;;;;;7.82;4.95;;;;;;;;;;5059848;28;20045;-77
2022/12/04 10:14:49;;;;;;;9.32;5.78;;;;;;;;;;5064139;28;20485;-77
2022/12/04 10:17:57;;;;;;;8.05;4.78;;;;;;;;;;5063079;28;20041;-78
2022/12/04 10:20:50;;;;;;;7.05;4.65;;;;;;;;;;5057364;28;20049;-76
2022/12/04 10:23:36;;;;;;;7.97;5.63;;;;;;;;;;5057280;28;20052;-80
2022/12/04 10:26:28;;;;;;;9.32;5.03;;;;;;;;;;5057107;28;20037;-77
2022/12/04 10:29:20;;;;;;;8.02;4.63;;;;;;;;;;5068436;28;20045;-78
2022/12/04 10:32:27;;;;;;;7.13;4.80;;;;;;;;;;5075864;28;20036;-79
2022/12/04 10:35:23;;;;;;;8.30;4.97;;;;;;;;;;5056457;28;20044;-76
2022/12/04 10:38:32;;;;;;;6.97;4.47;;;;;;;;;;5056631;28;20402;-78
2022/12/04 10:41:37;;;;;;;9.00;5.55;;;;;;;;;;5063585;28;20045;-78
2022/12/04 10:44:23;;;;;;;9.88;6.00;;;;;;;;;;5056079;28;20049;-79
2022/12/04 10:47:11;;;;;;;13.90;5.60;;;;;;;;;;5055914;28;20044;-76
2022/12/04 10:50:01;;;;;;;7.38;4.65;;;;;;;;;;5056092;28;20048;-79
2022/12/04 10:52:46;;;;;;;8.10;4.15;;;;;;;;;;5056036;28;20386;-76
2022/12/04 10:55:35;;;;;;;7.38;5.35;;;;;;;;;;5056008;28;20041;-78
2022/12/04 10:58:21;;;;;;;8.13;4.97;;;;;;;;;;5056253;28;20053;-80
2022/12/04 11:01:11;;;;;;;17.30;5.35;;;;;;;;;;5055839;28;20040;-78
2022/12/04 11:04:08;;;;;;;6.43;4.78;;;;;;;;;;5055315;28;20056;-78
2022/12/04 11:07:17;;;;;;;8.63;5.72;;;;;;;;;;5061323;28;20402;-78
2022/12/04 11:10:28;;;;;;;10.98;6.05;;;;;;;;;;5056085;28;20053;-79
2022/12/04 11:13:16;;;;;;;26.33;19.23;;;;;;;;;;5057646;28;20045;-79
2022/12/04 11:16:03;;;;;;;8.77;6.05;;;;;;;;;;5059088;28;20045;-79
2022/12/04 11:18:49;;;;;;;8.73;4.97;;;;;;;;;;5062239;28;20048;-78
2022/12/04 11:21:34;;;;;;;9.45;5.47;;;;;;;;;;5061631;28;20045;-79
2022/12/04 11:24:26;;;;;;;8.48;5.00;;;;;;;;;;5061363;28;20044;-77
2022/12/04 11:27:22;;;;;;;7.40;4.80;;;;;;;;;;5055764;28;20406;-79
2022/12/04 11:30:12;;;;;;;11.27;6.05;;;;;;;;;;5055765;28;20049;-78
2022/12/04 11:32:59;;;;;;;12.32;5.88;;;;;;;;;;5055539;28;20045;-79
2022/12/04 11:35:51;;;;;;;8.15;4.82;;;;;;;;;;5058437;28;20402;-80
2022/12/04 11:38:37;;;;;;;8.35;3.88;;;;;;;;;;5080283;28;20037;-78
2022/12/04 11:41:29;;;;;;;9.95;5.75;;;;;;;;;;5055263;28;20057;-77
2022/12/04 11:44:28;;;;;;;5.90;4.40;;;;;;;;;;5056744;28;20070;-79
2022/12/04 11:47:16;;;;;;;8.73;3.85;;;;;;;;;;5055480;28;20037;-79
2022/12/04 11:50:11;;;;;;;7.22;5.10;;;;;;;;;;5055437;28;20041;-78
2022/12/04 11:53:15;;;;;;;8.05;4.82;;;;;;;;;;5055161;28;20041;-77
2022/12/04 11:56:07;;;;;;;17.95;10.57;;;;;;;;;;5054839;28;20044;-77
2022/12/04 11:59:21;;;;;;;13.50;8.35;;;;;;;;;;5054647;28;20045;-77
2022/12/04 12:02:44;;;;;;;11.30;7.95;;;;;;;;;;5055003;28;20045;-78
2022/12/04 12:05:47;;;;;;;40.72;22.77;;;;;;;;;;5054780;28;20478;-76
2022/12/04 12:09:01;;;;;;;19.42;10.75;;;;;;;;;;5054964;28;20041;-77
2022/12/04 12:12:05;;;;;;;17.60;12.60;;;;;;;;;;5061678;28;20398;-78
2022/12/04 12:15:10;;;;;;;90.93;44.30;;;;;;;;;;5061345;28;20049;-79
2022/12/04 12:18:17;;;;;;;470.73;122.63;;;;;;;;;;5054561;28;20049;-78
2022/12/04 12:21:19;;;;;;;301.42;106.75;;;;;;;;;;5054896;28;20045;-79
2022/12/04 12:24:14;;;;;;;188.60;73.35;;;;;;;;;;5061044;28;20048;-77
2022/12/04 12:27:42;;;;;;;26.80;13.85;;;;;;;;;;5054630;28;20064;-79
2022/12/04 12:30:43;;;;;;;11.45;6.95;;;;;;;;;;5061248;28;20387;-77
2022/12/04 12:33:54;;;;;;;13.90;9.52;;;;;;;;;;5061330;28;20049;-76
2022/12/04 12:36:44;;;;;;;5.82;4.43;;;;;;;;;;5051128;28;20056;-79
2022/12/04 12:39:38;;;;;;;15.38;7.47;;;;;;;;;;5061019;28;20057;-76
2022/12/04 12:42:31;;;;;;;5.63;3.92;;;;;;;;;;5053945;28;20037;-78
2022/12/04 12:45:53;;;;;;;6.15;4.47;;;;;;;;;;5060422;28;20045;-81
2022/12/04 12:48:48;;;;;;;6.55;4.13;;;;;;;;;;5054324;28;20056;-82
2022/12/04 12:51:51;;;;;;;6.90;4.65;;;;;;;;;;5053138;28;20057;-79
2022/12/04 12:54:58;;;;;;;7.30;4.07;;;;;;;;;;5054560;28;20045;-79
2022/12/04 12:57:55;;;;;;;7.13;4.95;;;;;;;;;;5063424;28;20053;-78
2022/12/04 13:00:55;;;;;;;8.15;4.28;;;;;;;;;;5045895;28;20037;-80
2022/12/04 13:03:58;;;;;;;8.10;5.15;;;;;;;;;;5054270;28;20040;-84
2022/12/04 13:06:47;;;;;;;8.80;4.90;;;;;;;;;;5053289;28;20049;-80
2022/12/04 13:09:36;;;;;;;11.48;8.15;;;;;;;;;;5057522;28;20410;-80
2022/12/04 13:12:23;;;;;;;11.20;6.07;;;;;;;;;;5060497;28;20474;-79
2022/12/04 13:15:14;;;;;;;7.88;4.68;;;;;;;;;;5053490;28;20045;-79
2022/12/04 13:18:01;;;;;;;8.77;4.78;;;;;;;;;;5053411;28;20048;-78
2022/12/04 13:20:52;;;;;;;8.75;5.07;;;;;;;;;;5053774;28;20489;-78
2022/12/04 13:23:57;;;;;;;11.30;6.03;;;;;;;;;;5053846;28;20033;-80
2022/12/04 13:27:04;;;;;;;7.47;4.53;;;;;;;;;;5053500;28;20045;-79
2022/12/04 13:30:22;;;;;;;14.93;9.70;;;;;;;;;;5053783;28;20045;-77
2022/12/04 13:33:41;;;;;;;11.25;6.70;;;;;;;;;;5053701;28;20048;-79
2022/12/04 13:36:42;;;;;;;12.48;7.65;;;;;;;;;;5053417;28;20430;-80
2022/12/04 13:39:57;;;;;;;12.48;6.97;;;;;;;;;;5052664;28;20052;-79
2022/12/04 13:42:42;;;;;;;10.73;5.93;;;;;;;;;;5022896;28;20482;-77
2022/12/04 13:45:32;;;;;;;7.18;5.13;;;;;;;;;;5053810;28;20045;-78
2022/12/04 13:48:35;;;;;;;8.38;5.60;;;;;;;;;;5078166;28;20485;-79
2022/12/04 13:51:44;;;;;;;6.90;4.47;;;;;;;;;;5067148;28;20045;-78
2022/12/04 13:54:32;;;;;;;8.00;5.40;;;;;;;;;;5060358;28;20053;-79
2022/12/04 13:57:21;;;;;;;8.25;5.35;;;;;;;;;;5060039;28;20041;-79
2022/12/04 14:00:33;;;;;;;10.55;6.30;;;;;;;;;;5066609;28;20045;-78
2022/12/04 14:03:48;;;;;;;11.88;4.95;;;;;;;;;;5059864;28;20429;-79
2022/12/04 14:06:41;;;;;;;9.60;6.23;;;;;;;;;;5066700;28;20044;-77
2022/12/04 14:09:52;;;;;;;8.45;4.90;;;;;;;;;;5066751;28;20486;-80
2022/12/04 14:12:41;;;;;;;10.00;5.93;;;;;;;;;;5060268;28;20040;-76
2022/12/04 14:15:32;;;;;;;11.05;6.18;;;;;;;;;;5066384;28;20041;-80
2022/12/04 14:18:28;;;;;;;8.75;5.20;;;;;;;;;;5066817;28;20061;-76
2022/12/04 14:21:14;;;;;;;7.75;4.47;;;;;;;;;;5066638;28;20037;-78
2022/12/04 14:24:00;;;;;;;15.88;10.57;;;;;;;;;;5059891;28;20052;-77
2022/12/04 14:26:51;;;;;;;12.32;7.55;;;;;;;;;;5059889;28;20037;-76
2022/12/04 14:29:53;;;;;;;11.10;8.15;;;;;;;;;;5066823;28;20041;-77
2022/12/04 14:32:47;;;;;;;10.95;6.95;;;;;;;;;;5059592;28;20049;-78
2022/12/04 14:35:44;;;;;;;16.77;10.82;;;;;;;;;;5059462;28;20485;-78
2022/12/04 14:38:32;;;;;;;10.13;5.45;;;;;;;;;;5068114;28;20045;-78
2022/12/04 14:41:25;;;;;;;7.15;5.22;;;;;;;;;;5060511;28;20045;-78
2022/12/04 14:44:25;;;;;;;13.32;8.60;;;;;;;;;;5059353;28;20478;-77
2022/12/04 14:47:37;;;;;;;10.32;6.43;;;;;;;;;;5059668;28;20041;-79
2022/12/04 14:50:30;;;;;;;9.05;5.93;;;;;;;;;;5066080;28;20044;-76
2022/12/04 14:53:22;;;;;;;7.47;4.57;;;;;;;;;;5059748;28;20060;-77
2022/12/04 14:56:49;;;;;;;9.07;6.40;;;;;;;;;;5058465;28;20049;-76
2022/12/04 14:59:44;;;;;;;9.07;6.32;;;;;;;;;;5055644;28;20048;-76
2022/12/04 15:02:40;;;;;;;24.85;15.98;;;;;;;;;;5061972;28;20025;-77
2022/12/04 15:05:33;;;;;;;11.30;7.20;;;;;;;;;;5086465;28;20053;-77
2022/12/04 15:08:24;;;;;;;10.10;6.60;;;;;;;;;;5068268;28;20041;-77
2022/12/04 15:14:20;;;;;;;11.15;6.82;;;;;;;;;;5063002;28;20060;-76
2022/12/04 15:17:08;;;;;;;10.23;6.05;;;;;;;;;;5056471;28;20041;-76
2022/12/04 15:19:53;;;;;;;9.00;5.32;;;;;;;;;;5055665;28;20045;-76
2022/12/04 15:22:39;;;;;;;11.80;7.00;;;;;;;;;;5055780;28;20041;-78
2022/12/04 15:25:30;;;;;;;9.70;6.32;;;;;;;;;;5055286;28;20041;-76
2022/12/04 15:28:33;;;;;;;10.35;6.35;;;;;;;;;;5062679;28;20049;-80
2022/12/04 15:31:37;;;;;;;12.65;7.80;;;;;;;;;;5055534;28;20053;-78
2022/12/04 15:34:51;;;;;;;9.57;5.15;;;;;;;;;;5055769;28;20391;-76
2022/12/04 15:37:42;;;;;;;9.50;5.90;;;;;;;;;;5055227;28;20045;-77
2022/12/04 15:40:29;;;;;;;6.72;4.78;;;;;;;;;;5055441;28;20037;-74
2022/12/04 15:43:16;;;;;;;9.88;5.68;;;;;;;;;;5059706;28;20049;-77
2022/12/04 15:46:12;;;;;;;12.20;6.78;;;;;;;;;;5054941;28;20393;-77
2022/12/04 15:49:16;;;;;;;8.90;5.80;;;;;;;;;;5041026;28;20490;-79
2022/12/04 15:52:04;;;;;;;7.03;4.50;;;;;;;;;;5054941;28;20040;-81
2022/12/04 15:54:59;;;;;;;10.45;5.85;;;;;;;;;;5054959;28;20053;-81
2022/12/04 15:58:13;;;;;;;8.80;5.65;;;;;;;;;;5054987;28;20049;-79
2022/12/04 16:01:02;;;;;;;10.88;5.63;;;;;;;;;;5067515;28;20052;-79
2022/12/04 16:03:50;;;;;;;24.85;14.00;;;;;;;;;;5069813;28;20045;-79
2022/12/04 16:06:45;;;;;;;10.48;7.18;;;;;;;;;;5054970;28;20045;-82
2022/12/04 16:09:31;;;;;;;13.15;8.63;;;;;;;;;;5060371;28;20040;-80
2022/12/04 16:12:22;;;;;;;10.27;5.97;;;;;;;;;;5061614;28;20041;-80
2022/12/04 16:15:07;;;;;;;12.93;6.93;;;;;;;;;;5054846;28;20049;-78
2022/12/04 16:17:53;;;;;;;10.13;6.40;;;;;;;;;;5059399;28;20041;-79
2022/12/04 16:20:39;;;;;;;10.18;6.80;;;;;;;;;;5053920;28;20041;-81
2022/12/04 16:23:26;;;;;;;9.23;5.45;;;;;;;;;;5064502;28;20053;-80
2022/12/04 16:26:16;;;;;;;11.05;7.30;;;;;;;;;;5054978;28;20482;-78
2022/12/04 16:29:02;;;;;;;11.13;7.35;;;;;;;;;;5054692;28;20041;-80
2022/12/04 16:31:48;;;;;;;9.77;4.75;;;;;;;;;;5061198;28;20040;-81
2022/12/04 16:34:33;;;;;;;12.15;7.32;;;;;;;;;;5054319;28;20045;-78
2022/12/04 16:37:21;;;;;;;8.82;5.70;;;;;;;;;;5055241;28;20045;-79
2022/12/04 16:40:09;;;;;;;11.10;6.68;;;;;;;;;;5054788;28;20037;-78
2022/12/04 16:42:55;;;;;;;10.30;6.35;;;;;;;;;;5054255;28;20045;-79
2022/12/04 16:45:47;;;;;;;8.55;5.45;;;;;;;;;;5054315;28;20048;-79
2022/12/04 16:48:35;;;;;;;7.97;5.57;;;;;;;;;;5054396;28;20490;-80
2022/12/04 16:51:23;;;;;;;6.40;4.78;;;;;;;;;;5048340;28;20053;-81
2022/12/04 16:54:10;;;;;;;7.55;5.53;;;;;;;;;;5056034;28;20041;-80
2022/12/04 16:56:56;;;;;;;8.45;4.97;;;;;;;;;;5057156;28;20045;-80
2022/12/04 16:59:42;;;;;;;8.35;5.07;;;;;;;;;;5061229;28;20037;-79
2022/12/04 17:02:39;;;;;;;23.10;13.05;;;;;;;;;;5054595;28;20048;-83
2022/12/04 17:05:28;;;;;;;14.73;9.52;;;;;;;;;;5054271;28;20041;-79
2022/12/04 17:08:13;;;;;;;11.45;7.45;;;;;;;;;;5052074;28;20053;-80
2022/12/04 17:10:58;;;;;;;14.10;9.40;;;;;;;;;;5044259;28;20040;-78
2022/12/04 17:13:44;;;;;;;13.52;8.90;;;;;;;;;;5053657;28;20053;-81
2022/12/04 17:16:28;;;;;;;11.65;6.80;;;;;;;;;;5060196;28;20049;-79
2022/12/04 17:19:14;;;;;;;8.95;6.55;;;;;;;;;;5053718;28;20033;-79
2022/12/04 17:22:00;;;;;;;12.98;7.75;;;;;;;;;;5060389;28;20482;-81
2022/12/04 17:24:45;;;;;;;8.43;6.07;;;;;;;;;;5053613;28;20049;-80
2022/12/04 17:27:30;;;;;;;8.00;5.85;;;;;;;;;;5053829;28;20056;-81